createdAt,value
2023-03-21T00:00:35.280Z,99995.38
2023-03-21T00:03:38.211Z,99986.22
2023-03-21T00:06:40.853Z,99992.34
2023-03-21T00:09:43.747Z,99981.75
2023-03-21T00:12:46.296Z,99986.53
2023-03-21T00:16:05.872Z,99974.47
2023-03-21T00:19:15.965Z,99979.63
2023-03-21T00:22:18.809Z,99981.28
2023-03-21T00:25:21.430Z,99975.69
2023-03-21T00:28:25.179Z,99973.47
2023-03-21T00:31:27.907Z,99970.91
2023-03-21T00:34:42.733Z,99958.62
2023-03-21T00:37:51.354Z,99958.31
2023-03-21T00:40:55.101Z,99957.63
2023-03-21T00:43:57.739Z,99957.34
2023-03-21T00:47:07.362Z,99954.69
2023-03-21T00:50:11.972Z,99955.94
2023-03-21T00:53:15.734Z,99945.59
2023-03-21T00:56:18.233Z,99944.09
2023-03-21T00:59:21.245Z,99936.97
2023-03-21T01:02:26.876Z,99941.31
2023-03-21T01:05:53.868Z,99945.31
2023-03-21T01:08:56.441Z,99934.88
2023-03-21T01:11:59.545Z,99930.00
2023-03-21T01:15:02.093Z,99929.84
2023-03-21T01:18:05.312Z,99920.62
2023-03-21T01:21:14.499Z,99925.59
2023-03-21T01:24:17.490Z,99920.91
2023-03-21T01:27:20.877Z,99919.88
2023-03-21T01:30:24.997Z,99916.75
2023-03-21T01:33:30.308Z,99918.34
2023-03-21T01:36:33.269Z,99915.91
2023-03-21T01:39:36.909Z,99915.75
2023-03-21T01:42:39.837Z,99913.47
2023-03-21T01:46:45.381Z,99924.09
2023-03-21T01:49:56.671Z,99924.25
2023-03-21T01:53:00.759Z,99934.88
2023-03-21T01:56:08.628Z,99929.56
2023-03-21T01:59:17.411Z,99930.91
2023-03-21T02:02:26.362Z,99925.00
2023-03-21T02:05:41.701Z,99925.63
2023-03-21T02:08:44.688Z,99929.47
2023-03-21T02:11:47.862Z,99934.25
2023-03-21T02:14:52.025Z,99928.78
2023-03-21T02:18:05.759Z,99928.88
2023-03-21T02:21:27.763Z,99929.62
2023-03-21T02:25:06.204Z,99930.47
2023-03-21T02:28:37.076Z,99928.03
2023-03-21T02:32:17.910Z,99919.94
2023-03-21T02:35:54.432Z,99931.22
2023-03-21T02:39:45.054Z,99928.66
2023-03-21T02:43:01.207Z,99923.56
2023-03-21T02:46:12.203Z,99928.03
2023-03-21T02:49:20.794Z,99934.94
2023-03-21T02:52:39.265Z,99936.38
2023-03-21T02:55:43.586Z,99931.44
2023-03-21T02:58:47.082Z,99929.41
2023-03-21T03:01:52.378Z,99932.81
2023-03-21T03:04:55.705Z,99933.28
2023-03-21T03:08:22.195Z,99937.34
2023-03-21T03:11:37.468Z,99932.28
2023-03-21T03:15:08.997Z,99931.69
2023-03-21T03:18:21.097Z,99935.16
2023-03-21T03:21:26.734Z,99936.00
2023-03-21T03:25:04.805Z,99929.84
2023-03-21T03:28:20.125Z,99939.78
2023-03-21T03:31:32.145Z,99942.06
2023-03-21T03:34:39.828Z,99937.72
2023-03-21T03:37:43.237Z,99934.28
2023-03-21T03:40:49.301Z,99933.97
2023-03-21T03:43:59.808Z,99930.75
2023-03-21T03:47:15.163Z,99942.59
2023-03-21T03:50:54.289Z,99939.94
2023-03-21T03:54:01.817Z,99942.34
2023-03-21T03:57:06.029Z,99929.50
2023-03-21T04:00:13.053Z,99936.34
2023-03-21T04:03:19.613Z,99936.78
2023-03-21T04:06:22.730Z,99934.25
2023-03-21T04:09:42.580Z,99936.28
2023-03-21T04:12:46.818Z,99939.41
2023-03-21T04:15:49.869Z,99947.53
2023-03-21T04:18:53.446Z,99949.41
2023-03-21T04:21:56.108Z,99950.00
2023-03-21T04:25:00.554Z,99946.09
2023-03-21T04:28:03.741Z,99939.87
2023-03-21T04:31:24.162Z,99939.72
2023-03-21T04:34:29.029Z,99936.25
2023-03-21T04:37:33.914Z,99939.78
2023-03-21T04:40:37.492Z,99944.03
2023-03-21T04:43:40.907Z,99934.69
2023-03-21T04:46:43.770Z,99932.22
2023-03-21T04:49:48.153Z,99935.00
2023-03-21T04:52:51.200Z,99937.81
2023-03-21T04:55:57.566Z,99936.88
2023-03-21T04:59:02.091Z,99941.50
2023-03-21T05:02:04.964Z,99932.59
2023-03-21T05:05:11.195Z,99935.13
2023-03-21T05:08:14.517Z,99938.47
2023-03-21T05:11:17.296Z,99934.16
2023-03-21T05:14:23.651Z,99942.56
2023-03-21T05:17:28.521Z,99942.41
2023-03-21T05:20:31.976Z,99950.09
2023-03-21T05:23:38.418Z,99951.66
2023-03-21T05:26:43.221Z,99944.28
2023-03-21T05:29:47.636Z,99937.56
2023-03-21T05:32:51.524Z,99947.84
2023-03-21T05:35:54.721Z,99947.81
2023-03-21T05:38:58.091Z,99956.75
2023-03-21T05:42:00.911Z,99957.75
2023-03-21T05:45:04.350Z,99949.72
2023-03-21T05:48:08.239Z,99952.66
2023-03-21T05:51:12.464Z,99962.44
2023-03-21T05:54:16.849Z,99966.78
2023-03-21T05:57:20.212Z,99961.72
2023-03-21T06:00:24.301Z,99964.16
2023-03-21T06:03:33.887Z,99960.34
2023-03-21T06:06:36.897Z,99971.19
2023-03-21T06:09:40.183Z,99975.31
2023-03-21T06:12:43.417Z,99970.16
2023-03-21T06:15:47.475Z,99968.69
2023-03-21T06:18:50.528Z,99977.78
2023-03-21T06:21:53.922Z,99971.88
2023-03-21T06:24:56.570Z,99974.19
2023-03-21T06:27:59.448Z,99972.91
2023-03-21T06:31:02.692Z,99978.91
2023-03-21T06:34:05.750Z,99975.09
2023-03-21T06:37:08.618Z,99981.75
2023-03-21T06:40:13.952Z,99974.69
2023-03-21T06:43:17.354Z,99984.16
2023-03-21T06:46:20.778Z,99986.22
2023-03-21T06:49:24.350Z,99981.28
2023-03-21T06:52:27.250Z,99984.47
2023-03-21T06:55:29.925Z,99976.97
2023-03-21T06:58:34.169Z,99982.66
2023-03-21T07:01:37.884Z,99975.75
2023-03-21T07:04:41.238Z,99973.94
2023-03-21T07:07:46.777Z,99982.75
2023-03-21T07:10:50.534Z,99975.97
2023-03-21T07:13:53.281Z,99991.63
2023-03-21T07:16:56.879Z,99991.94
2023-03-21T07:19:59.824Z,99985.41
2023-03-21T07:23:02.654Z,99978.41
2023-03-21T07:26:05.813Z,99984.91
2023-03-21T07:29:11.983Z,99983.50
2023-03-21T07:32:14.672Z,99985.50
2023-03-21T07:35:18.129Z,99990.34
2023-03-21T07:38:21.576Z,99990.44
2023-03-21T07:41:24.768Z,99984.38
2023-03-21T07:44:27.405Z,99984.69
2023-03-21T07:47:32.077Z,99985.34
2023-03-21T07:50:35.342Z,99990.88
2023-03-21T07:53:38.332Z,99988.00
2023-03-21T07:56:41.598Z,99985.84
2023-03-21T07:59:44.815Z,99982.78
2023-03-21T08:02:47.694Z,99982.66
2023-03-21T08:05:51.112Z,99974.94
2023-03-21T08:08:53.669Z,99979.44
2023-03-21T08:11:56.522Z,99979.06
2023-03-21T08:15:01.129Z,99981.78
2023-03-21T08:18:04.175Z,99975.84
2023-03-21T08:21:09.354Z,99976.63
2023-03-21T08:24:12.448Z,99974.94
2023-03-21T08:27:15.183Z,99977.75
2023-03-21T08:30:21.309Z,99978.69
2023-03-21T08:33:23.944Z,99981.50
2023-03-21T08:36:26.770Z,99983.50
2023-03-21T08:39:30.287Z,99986.63
2023-03-21T08:42:33.484Z,99995.09
2023-03-21T08:45:36.336Z,99985.72
2023-03-21T08:48:39.726Z,99986.09
2023-03-21T08:51:45.773Z,99984.19
2023-03-21T08:54:49.140Z,99981.94
2023-03-21T08:57:51.654Z,99975.09
2023-03-21T09:00:54.685Z,99968.47
2023-03-21T09:03:57.181Z,99970.69
2023-03-21T09:07:01.560Z,99969.34
2023-03-21T09:10:20.668Z,99965.88
2023-03-21T09:13:24.758Z,99961.47
2023-03-21T09:16:28.114Z,99959.31
2023-03-21T09:19:31.951Z,99963.59
2023-03-21T09:22:34.547Z,99963.03
2023-03-21T09:25:38.672Z,99968.31
2023-03-21T09:28:42.833Z,99952.63
2023-03-21T09:31:47.087Z,99951.75
2023-03-21T09:34:49.743Z,99959.31
2023-03-21T09:37:52.850Z,99960.50
2023-03-21T09:41:16.366Z,99957.28
2023-03-21T09:44:32.218Z,99965.16
2023-03-21T09:47:49.665Z,99961.44
2023-03-21T09:50:53.504Z,99956.31
2023-03-21T09:53:57.875Z,99950.53
2023-03-21T09:57:20.757Z,99956.53
2023-03-21T10:00:40.155Z,99954.03
2023-03-21T10:03:43.928Z,99950.31
2023-03-21T10:06:55.475Z,99948.84
2023-03-21T10:10:00.436Z,99947.81
2023-03-21T10:13:05.397Z,99943.69
2023-03-21T10:16:17.388Z,99949.50
2023-03-21T10:19:20.594Z,99945.38
2023-03-21T10:22:23.460Z,99947.00
2023-03-21T10:25:48.259Z,99940.78
2023-03-21T10:28:53.625Z,99944.12
2023-03-21T10:31:56.716Z,99942.47
2023-03-21T10:35:00.048Z,99939.13
2023-03-21T10:38:03.839Z,99936.84
2023-03-21T10:41:06.796Z,99940.81
2023-03-21T10:44:17.242Z,99941.63
2023-03-21T10:47:32.596Z,99932.94
2023-03-21T10:50:35.900Z,99935.19
2023-03-21T10:53:41.634Z,99929.97
2023-03-21T10:57:05.013Z,99927.41
2023-03-21T11:00:17.174Z,99937.00
2023-03-21T11:03:29.481Z,99929.34
2023-03-21T11:06:35.019Z,99925.69
2023-03-21T11:09:54.397Z,99926.28
2023-03-21T11:12:58.532Z,99914.94
2023-03-21T11:16:07.444Z,99913.69
2023-03-21T11:19:16.214Z,99907.47
2023-03-21T11:22:24.249Z,99899.78
2023-03-21T11:25:37.627Z,99903.91
2023-03-21T11:28:41.733Z,99894.22
2023-03-21T11:31:44.976Z,99898.38
2023-03-21T11:34:53.419Z,99883.22
2023-03-21T11:37:56.723Z,99875.03
2023-03-21T11:41:02.711Z,99881.88
2023-03-21T11:44:05.795Z,99877.25
2023-03-21T11:47:09.854Z,99876.97
2023-03-21T11:50:17.774Z,99868.72
2023-03-21T11:53:51.892Z,99875.75
2023-03-21T11:57:13.477Z,99868.50
2023-03-21T12:00:51.758Z,99857.88
2023-03-21T12:04:04.697Z,99862.13
2023-03-21T12:07:45.336Z,99852.03
2023-03-21T12:11:07.233Z,99854.13
2023-03-21T12:14:26.224Z,99851.63
2023-03-21T12:17:56.902Z,99859.41
2023-03-21T12:21:20.720Z,99852.19
2023-03-21T12:24:28.501Z,99843.94
2023-03-21T12:27:42.865Z,99845.59
2023-03-21T12:30:48.264Z,99851.41
2023-03-21T12:34:19.528Z,99832.53
2023-03-21T12:37:32.716Z,99840.59
2023-03-21T12:40:55.460Z,99829.41
2023-03-21T12:44:06.275Z,99833.03
2023-03-21T12:47:18.314Z,99815.69
2023-03-21T12:50:37.483Z,99825.09
2023-03-21T12:53:44.716Z,99820.13
2023-03-21T12:56:55.572Z,99826.13
2023-03-21T13:00:24.119Z,99821.16
2023-03-21T13:03:40.578Z,99821.81
2023-03-21T13:06:43.830Z,99826.03
2023-03-21T13:09:46.901Z,99817.00
2023-03-21T13:13:17.364Z,99814.59
2023-03-21T13:16:41.707Z,99810.66
2023-03-21T13:19:51.632Z,99803.41
2023-03-21T13:22:54.840Z,99805.91
2023-03-21T13:25:57.916Z,99796.38
2023-03-21T13:29:01.006Z,99802.13
2023-03-21T13:32:10.263Z,99800.78
2023-03-21T13:35:13.629Z,99791.69
2023-03-21T13:38:16.521Z,99804.06
2023-03-21T13:41:25.963Z,99791.81
2023-03-21T13:44:33.720Z,99787.66
2023-03-21T13:48:01.942Z,99786.41
2023-03-21T13:51:05.653Z,99777.44
2023-03-21T13:54:08.908Z,99787.75
2023-03-21T13:57:30.536Z,99781.38
2023-03-21T14:00:39.810Z,99787.97
2023-03-21T14:03:45.284Z,99777.22
2023-03-21T14:07:07.170Z,99779.69
2023-03-21T14:10:21.144Z,99778.47
2023-03-21T14:13:26.172Z,99770.53
2023-03-21T14:16:29.617Z,99759.78
2023-03-21T14:19:32.823Z,99767.47
2023-03-21T14:22:35.661Z,99764.78
2023-03-21T14:25:46.752Z,99753.38
2023-03-21T14:28:51.615Z,99754.22
2023-03-21T14:31:56.376Z,99747.78
2023-03-21T14:35:01.141Z,99742.81
2023-03-21T14:38:05.675Z,99745.28
2023-03-21T14:41:48.262Z,99742.00
2023-03-21T14:44:56.140Z,99745.12
2023-03-21T14:48:05.868Z,99742.84
2023-03-21T14:51:12.198Z,99739.72
2023-03-21T14:54:19.838Z,99733.47
2023-03-21T14:57:25.704Z,99735.34
2023-03-21T15:00:30.065Z,99738.69
2023-03-21T15:03:33.141Z,99729.97
2023-03-21T15:06:52.081Z,99736.97
2023-03-21T15:10:00.912Z,99723.00
2023-03-21T15:13:15.910Z,99721.72
2023-03-21T15:16:19.063Z,99723.62
2023-03-21T15:19:28.597Z,99723.97
2023-03-21T15:22:43.043Z,99728.16
2023-03-21T15:25:46.005Z,99722.22
2023-03-21T15:28:51.534Z,99723.28
2023-03-21T15:31:55.128Z,99721.47
2023-03-21T15:35:07.474Z,99716.75
2023-03-21T15:38:23.287Z,99707.84
2023-03-21T15:41:29.542Z,99706.59
2023-03-21T15:44:34.084Z,99706.59
2023-03-21T15:47:49.901Z,99715.91
2023-03-21T15:50:58.365Z,99707.44
2023-03-21T15:54:02.434Z,99716.16
2023-03-21T15:57:09.604Z,99713.88
2023-03-21T16:00:22.604Z,99718.00
2023-03-21T16:03:28.926Z,99718.19
2023-03-21T16:06:33.755Z,99721.28
2023-03-21T16:09:44.522Z,99715.69
2023-03-21T16:12:47.032Z,99726.44
2023-03-21T16:15:49.881Z,99720.84
2023-03-21T16:18:54.964Z,99727.00
2023-03-21T16:21:57.978Z,99731.50
2023-03-21T16:25:00.728Z,99738.97
2023-03-21T16:28:03.630Z,99739.66
2023-03-21T16:31:06.515Z,99732.03
2023-03-21T16:34:10.813Z,99734.87
2023-03-21T16:37:16.067Z,99728.66
2023-03-21T16:40:36.023Z,99734.47
2023-03-21T16:43:43.077Z,99737.13
2023-03-21T16:46:47.269Z,99744.22
2023-03-21T16:49:50.039Z,99737.97
2023-03-21T16:52:54.254Z,99753.03
2023-03-21T16:56:02.544Z,99754.56
2023-03-21T16:59:06.211Z,99751.00
2023-03-21T17:02:13.024Z,99755.25
2023-03-21T17:05:16.066Z,99767.44
2023-03-21T17:08:19.900Z,99766.31
2023-03-21T17:11:24.249Z,99771.06
2023-03-21T17:14:27.196Z,99766.09
2023-03-21T17:17:30.040Z,99767.91
2023-03-21T17:20:35.187Z,99770.00
2023-03-21T17:23:38.405Z,99774.69
2023-03-21T17:26:41.062Z,99775.28
2023-03-21T17:29:44.472Z,99779.09
2023-03-21T17:32:48.711Z,99785.69
2023-03-21T17:35:51.807Z,99783.56
2023-03-21T17:38:55.456Z,99783.50
2023-03-21T17:42:00.402Z,99783.88
2023-03-21T17:45:03.089Z,99784.38
2023-03-21T17:48:06.134Z,99786.13
2023-03-21T17:51:12.816Z,99792.94
2023-03-21T17:54:15.977Z,99787.75
2023-03-21T17:57:18.540Z,99799.19
2023-03-21T18:00:24.300Z,99791.69
2023-03-21T18:03:27.241Z,99802.19
2023-03-21T18:06:30.081Z,99813.28
2023-03-21T18:09:33.583Z,99812.25
2023-03-21T18:12:36.227Z,99814.97
2023-03-21T18:15:44.257Z,99823.22
2023-03-21T18:18:47.848Z,99822.62
2023-03-21T18:21:52.051Z,99817.06
2023-03-21T18:24:57.713Z,99817.94
2023-03-21T18:28:10.592Z,99823.13
2023-03-21T18:31:19.753Z,99822.34
2023-03-21T18:34:23.249Z,99820.69
2023-03-21T18:37:27.677Z,99824.91
2023-03-21T18:40:30.947Z,99821.62
2023-03-21T18:44:00.748Z,99824.59
2023-03-21T18:46:58.781Z,99826.91
2023-03-21T18:50:17.114Z,99824.81
2023-03-21T18:53:22.448Z,99831.00
2023-03-21T18:57:13.749Z,99825.34
2023-03-21T18:59:48.605Z,99830.66
2023-03-21T19:03:09.977Z,99836.59
2023-03-21T19:06:17.769Z,99832.44
2023-03-21T19:09:29.038Z,99836.47
2023-03-21T19:12:35.669Z,99840.13
2023-03-21T19:15:41.514Z,99842.47
2023-03-21T19:18:57.254Z,99848.09
2023-03-21T19:22:00.771Z,99844.78
2023-03-21T19:25:05.741Z,99838.12
2023-03-21T19:28:09.922Z,99849.28
2023-03-21T19:31:15.634Z,99851.06
2023-03-21T19:34:21.786Z,99855.38
2023-03-21T19:37:25.462Z,99854.72
2023-03-21T19:40:28.998Z,99849.37
2023-03-21T19:43:33.593Z,99849.03
2023-03-21T19:46:37.053Z,99853.66
2023-03-21T19:53:04.365Z,99861.56
2023-03-21T19:56:20.356Z,99865.22
2023-03-21T19:59:25.202Z,99865.84
2023-03-21T20:02:36.993Z,99869.16
2023-03-21T20:05:40.818Z,99868.31
2023-03-21T20:12:08.946Z,99878.37
2023-03-21T20:15:18.294Z,99873.53
2023-03-21T20:18:26.202Z,99862.53
2023-03-21T20:21:33.850Z,99872.66
2023-03-21T20:24:44.362Z,99871.66
2023-03-21T20:27:47.245Z,99886.56
2023-03-21T20:30:54.599Z,99888.84
2023-03-21T20:33:58.056Z,99870.63
2023-03-21T20:37:01.472Z,99874.06
2023-03-21T20:40:09.366Z,99875.56
2023-03-21T20:43:54.307Z,99874.69
2023-03-21T20:46:37.523Z,99879.31
2023-03-21T20:49:40.933Z,99874.88
2023-03-21T20:53:01.140Z,99876.81
2023-03-21T20:56:07.536Z,99888.91
2023-03-21T20:59:23.118Z,99882.44
2023-03-21T21:02:28.717Z,99894.97
2023-03-21T21:05:34.883Z,99883.50
2023-03-21T21:08:38.807Z,99892.25
2023-03-21T21:12:06.594Z,99887.31
2023-03-21T21:15:07.118Z,99899.12
2023-03-21T21:18:10.027Z,99902.94
2023-03-21T21:21:14.040Z,99893.41
2023-03-21T21:24:16.536Z,99900.16
2023-03-21T21:27:20.053Z,99906.50
2023-03-21T21:30:23.205Z,99910.97
2023-03-21T21:33:29.235Z,99907.41
2023-03-21T21:36:31.772Z,99916.97
2023-03-21T21:39:35.560Z,99921.28
2023-03-21T21:42:38.483Z,99921.97
2023-03-21T21:45:42.158Z,99922.13
2023-03-21T21:48:44.701Z,99937.59
2023-03-21T21:51:48.083Z,99936.47
2023-03-21T21:54:50.637Z,99940.94
2023-03-21T21:57:57.972Z,99940.78
2023-03-21T22:01:01.710Z,99946.75
2023-03-21T22:04:08.471Z,99953.41
2023-03-21T22:07:14.262Z,99948.25
2023-03-21T22:10:17.574Z,99954.69
2023-03-21T22:13:20.419Z,99956.06
2023-03-21T22:16:23.386Z,99952.72
2023-03-21T22:19:27.673Z,99958.25
2023-03-21T22:22:30.691Z,99953.34
2023-03-21T22:25:33.214Z,99948.50
2023-03-21T22:28:37.085Z,99951.28
2023-03-21T22:31:41.843Z,99961.44
2023-03-21T22:34:44.772Z,99959.19
2023-03-21T22:37:47.326Z,99957.28
2023-03-21T22:40:57.767Z,99953.81
2023-03-21T22:44:00.433Z,99957.34
2023-03-21T22:47:10.931Z,99962.25
2023-03-21T22:50:13.539Z,99961.84
2023-03-21T22:53:16.404Z,99961.44
2023-03-21T22:56:19.062Z,99966.06
2023-03-21T22:59:21.913Z,99955.75
2023-03-21T23:02:24.891Z,99955.06
2023-03-21T23:05:27.776Z,99954.09
2023-03-21T23:08:30.584Z,99952.72
2023-03-21T23:11:33.386Z,99954.81
2023-03-21T23:14:36.040Z,99952.41
2023-03-21T23:17:38.950Z,99947.97
2023-03-21T23:20:42.183Z,99944.44
2023-03-21T23:23:49.716Z,99942.31
2023-03-21T23:26:52.801Z,99943.19
2023-03-21T23:29:56.730Z,99933.75
2023-03-21T23:32:59.252Z,99938.22
2023-03-21T23:36:02.303Z,99936.81
2023-03-21T23:39:04.850Z,99938.78
2023-03-21T23:42:07.875Z,99938.09
2023-03-21T23:45:10.982Z,99942.84
2023-03-21T23:48:14.080Z,99942.03
2023-03-21T23:51:17.709Z,99945.03
2023-03-21T23:54:20.706Z,99947.81
2023-03-21T23:57:23.251Z,99948.78
